sensor_id;sensor_type;location;lat;lon;timestamp;P1;durP1;ratioP1;P2;durP2;ratioP2
84840;SDS011;75088;53.114;18.040;2024-02-23T00:00:03;15.40;;;9.30;;
84840;SDS011;75088;53.114;18.040;2024-02-23T00:01:35;14.20;;;8.60;;
84840;SDS011;75088;53.114;18.040;2024-02-23T00:02:42;13.60;;;9.50;;
84840;SDS011;75088;53.114;18.040;2024-02-23T00:03:49;12.90;;;8.80;;
84840;SDS011;75088;53.114;18.040;2024-02-23T00:04:56;11.90;;;8.90;;
84840;SDS011;75088;53.114;18.040;2024-02-23T00:06:04;11.80;;;9.10;;
84840;SDS011;75088;53.114;18.040;2024-02-23T00:07:13;14.30;;;9.30;;
84840;SDS011;75088;53.114;18.040;2024-02-23T00:08:20;13.20;;;8.60;;
84840;SDS011;75088;53.114;18.040;2024-02-23T00:09:27;14.20;;;9.00;;
84840;SDS011;75088;53.114;18.040;2024-02-23T00:10:34;13.80;;;9.00;;
84840;SDS011;75088;53.114;18.040;2024-02-23T00:11:41;12.30;;;8.70;;
84840;SDS011;75088;53.114;18.040;2024-02-23T00:12:49;13.10;;;8.90;;
84840;SDS011;75088;53.114;18.040;2024-02-23T00:13:56;12.10;;;8.20;;
84840;SDS011;75088;53.114;18.040;2024-02-23T00:15:03;12.80;;;8.20;;
84840;SDS011;75088;53.114;18.040;2024-02-23T00:16:12;11.30;;;8.60;;
84840;SDS011;75088;53.114;18.040;2024-02-23T00:17:19;11.80;;;8.00;;
84840;SDS011;75088;53.114;18.040;2024-02-23T00:18:27;13.10;;;9.10;;
84840;SDS011;75088;53.114;18.040;2024-02-23T00:19:34;11.10;;;8.00;;
84840;SDS011;75088;53.114;18.040;2024-02-23T00:20:42;14.40;;;8.50;;
84840;SDS011;75088;53.114;18.040;2024-02-23T00:21:49;11.30;;;8.30;;
84840;SDS011;75088;53.114;18.040;2024-02-23T00:22:57;11.30;;;8.20;;
84840;SDS011;75088;53.114;18.040;2024-02-23T00:24:04;12.20;;;8.40;;
84840;SDS011;75088;53.114;18.040;2024-02-23T00:25:11;11.10;;;7.90;;
84840;SDS011;75088;53.114;18.040;2024-02-23T00:26:19;9.40;;;7.40;;
84840;SDS011;75088;53.114;18.040;2024-02-23T00:27:26;14.50;;;9.10;;
84840;SDS011;75088;53.114;18.040;2024-02-23T00:28:33;11.90;;;8.40;;
84840;SDS011;75088;53.114;18.040;2024-02-23T00:29:40;11.00;;;8.40;;
84840;SDS011;75088;53.114;18.040;2024-02-23T00:30:48;14.00;;;8.00;;
84840;SDS011;75088;53.114;18.040;2024-02-23T00:31:55;12.50;;;8.00;;
84840;SDS011;75088;53.114;18.040;2024-02-23T00:33:02;13.00;;;9.10;;
84840;SDS011;75088;53.114;18.040;2024-02-23T00:34:10;10.90;;;8.60;;
84840;SDS011;75088;53.114;18.040;2024-02-23T00:35:18;13.50;;;8.80;;
84840;SDS011;75088;53.114;18.040;2024-02-23T00:36:25;12.40;;;8.70;;
84840;SDS011;75088;53.114;18.040;2024-02-23T00:37:32;12.30;;;8.70;;
84840;SDS011;75088;53.114;18.040;2024-02-23T00:38:39;15.00;;;9.00;;
84840;SDS011;75088;53.114;18.040;2024-02-23T00:39:47;13.50;;;9.80;;
84840;SDS011;75088;53.114;18.040;2024-02-23T00:40:54;10.90;;;8.70;;
84840;SDS011;75088;53.114;18.040;2024-02-23T00:42:01;12.10;;;8.90;;
84840;SDS011;75088;53.114;18.040;2024-02-23T00:43:08;15.60;;;9.40;;
84840;SDS011;75088;53.114;18.040;2024-02-23T00:44:15;12.60;;;9.20;;
84840;SDS011;75088;53.114;18.040;2024-02-23T00:45:22;11.20;;;9.20;;
84840;SDS011;75088;53.114;18.040;2024-02-23T00:46:29;13.00;;;9.00;;
84840;SDS011;75088;53.114;18.040;2024-02-23T00:47:37;12.70;;;9.70;;
84840;SDS011;75088;53.114;18.040;2024-02-23T00:48:44;10.60;;;8.20;;
84840;SDS011;75088;53.114;18.040;2024-02-23T00:49:51;13.30;;;9.80;;
84840;SDS011;75088;53.114;18.040;2024-02-23T00:50:58;13.70;;;9.60;;
84840;SDS011;75088;53.114;18.040;2024-02-23T00:52:06;13.30;;;8.90;;
84840;SDS011;75088;53.114;18.040;2024-02-23T00:53:12;12.00;;;8.70;;
84840;SDS011;75088;53.114;18.040;2024-02-23T00:54:21;12.00;;;8.60;;
84840;SDS011;75088;53.114;18.040;2024-02-23T00:55:28;11.10;;;7.70;;
84840;SDS011;75088;53.114;18.040;2024-02-23T00:56:35;13.20;;;8.20;;
84840;SDS011;75088;53.114;18.040;2024-02-23T00:57:43;12.30;;;8.40;;
84840;SDS011;75088;53.114;18.040;2024-02-23T00:58:49;14.40;;;9.10;;
84840;SDS011;75088;53.114;18.040;2024-02-23T00:59:57;11.40;;;8.30;;
84840;SDS011;75088;53.114;18.040;2024-02-23T01:01:04;12.60;;;7.90;;
84840;SDS011;75088;53.114;18.040;2024-02-23T01:02:12;12.20;;;9.20;;
84840;SDS011;75088;53.114;18.040;2024-02-23T01:03:19;11.70;;;7.90;;
84840;SDS011;75088;53.114;18.040;2024-02-23T01:04:26;12.20;;;8.40;;
84840;SDS011;75088;53.114;18.040;2024-02-23T01:05:33;13.90;;;8.90;;
84840;SDS011;75088;53.114;18.040;2024-02-23T01:06:41;13.30;;;9.00;;
84840;SDS011;75088;53.114;18.040;2024-02-23T01:07:48;12.90;;;8.50;;
84840;SDS011;75088;53.114;18.040;2024-02-23T01:08:55;11.80;;;8.80;;
84840;SDS011;75088;53.114;18.040;2024-02-23T01:10:04;13.20;;;8.70;;
84840;SDS011;75088;53.114;18.040;2024-02-23T01:11:13;11.60;;;8.10;;
84840;SDS011;75088;53.114;18.040;2024-02-23T01:12:21;13.70;;;9.20;;
84840;SDS011;75088;53.114;18.040;2024-02-23T01:13:28;11.70;;;8.90;;
84840;SDS011;75088;53.114;18.040;2024-02-23T01:14:35;10.80;;;8.30;;
84840;SDS011;75088;53.114;18.040;2024-02-23T01:15:42;13.80;;;9.30;;
84840;SDS011;75088;53.114;18.040;2024-02-23T01:16:49;11.30;;;7.80;;
84840;SDS011;75088;53.114;18.040;2024-02-23T01:17:59;11.90;;;8.80;;
84840;SDS011;75088;53.114;18.040;2024-02-23T01:19:06;13.10;;;8.00;;
84840;SDS011;75088;53.114;18.040;2024-02-23T01:20:13;12.10;;;9.50;;
84840;SDS011;75088;53.114;18.040;2024-02-23T01:21:21;11.60;;;8.30;;
84840;SDS011;75088;53.114;18.040;2024-02-23T01:22:28;11.60;;;8.80;;
84840;SDS011;75088;53.114;18.040;2024-02-23T01:23:35;11.00;;;7.80;;
84840;SDS011;75088;53.114;18.040;2024-02-23T01:24:43;11.40;;;7.70;;
84840;SDS011;75088;53.114;18.040;2024-02-23T01:25:49;12.10;;;8.60;;
84840;SDS011;75088;53.114;18.040;2024-02-23T01:26:57;11.20;;;8.70;;
84840;SDS011;75088;53.114;18.040;2024-02-23T01:28:05;12.30;;;8.50;;
84840;SDS011;75088;53.114;18.040;2024-02-23T01:29:12;12.90;;;8.90;;
84840;SDS011;75088;53.114;18.040;2024-02-23T01:30:20;12.20;;;8.60;;
84840;SDS011;75088;53.114;18.040;2024-02-23T01:31:27;13.10;;;8.90;;
84840;SDS011;75088;53.114;18.040;2024-02-23T01:32:35;10.90;;;8.80;;
84840;SDS011;75088;53.114;18.040;2024-02-23T01:33:43;10.30;;;7.40;;
84840;SDS011;75088;53.114;18.040;2024-02-23T01:34:50;10.50;;;7.60;;
84840;SDS011;75088;53.114;18.040;2024-02-23T01:35:57;12.30;;;8.10;;
84840;SDS011;75088;53.114;18.040;2024-02-23T01:37:05;12.10;;;8.50;;
84840;SDS011;75088;53.114;18.040;2024-02-23T01:38:12;13.30;;;8.70;;
84840;SDS011;75088;53.114;18.040;2024-02-23T01:39:24;11.50;;;8.90;;
84840;SDS011;75088;53.114;18.040;2024-02-23T01:40:32;12.20;;;8.60;;
84840;SDS011;75088;53.114;18.040;2024-02-23T01:41:39;13.00;;;7.80;;
84840;SDS011;75088;53.114;18.040;2024-02-23T01:42:48;11.40;;;7.70;;
84840;SDS011;75088;53.114;18.040;2024-02-23T01:44:05;12.50;;;8.70;;
84840;SDS011;75088;53.114;18.040;2024-02-23T01:45:12;14.20;;;8.60;;
84840;SDS011;75088;53.114;18.040;2024-02-23T01:46:19;12.00;;;8.30;;
84840;SDS011;75088;53.114;18.040;2024-02-23T01:47:27;12.60;;;8.50;;
84840;SDS011;75088;53.114;18.040;2024-02-23T01:48:35;12.90;;;7.80;;
84840;SDS011;75088;53.114;18.040;2024-02-23T01:49:42;10.50;;;8.20;;
84840;SDS011;75088;53.114;18.040;2024-02-23T01:50:52;12.30;;;8.50;;
84840;SDS011;75088;53.114;18.040;2024-02-23T01:52:01;12.30;;;9.40;;
84840;SDS011;75088;53.114;18.040;2024-02-23T01:53:10;13.60;;;8.20;;
84840;SDS011;75088;53.114;18.040;2024-02-23T01:54:17;11.30;;;8.10;;
84840;SDS011;75088;53.114;18.040;2024-02-23T01:55:25;10.40;;;8.00;;
84840;SDS011;75088;53.114;18.040;2024-02-23T01:56:32;11.60;;;8.30;;
84840;SDS011;75088;53.114;18.040;2024-02-23T01:57:40;12.60;;;8.70;;
84840;SDS011;75088;53.114;18.040;2024-02-23T01:58:47;13.30;;;8.50;;
84840;SDS011;75088;53.114;18.040;2024-02-23T01:59:54;11.30;;;8.30;;
84840;SDS011;75088;53.114;18.040;2024-02-23T02:01:02;11.50;;;7.90;;
84840;SDS011;75088;53.114;18.040;2024-02-23T02:02:09;12.00;;;8.70;;
84840;SDS011;75088;53.114;18.040;2024-02-23T02:03:17;11.50;;;8.30;;
84840;SDS011;75088;53.114;18.040;2024-02-23T02:04:24;10.60;;;8.00;;
84840;SDS011;75088;53.114;18.040;2024-02-23T02:05:31;11.20;;;8.20;;
84840;SDS011;75088;53.114;18.040;2024-02-23T02:06:40;11.60;;;8.10;;
84840;SDS011;75088;53.114;18.040;2024-02-23T02:07:49;11.70;;;8.20;;
84840;SDS011;75088;53.114;18.040;2024-02-23T02:09:03;11.90;;;8.30;;
84840;SDS011;75088;53.114;18.040;2024-02-23T02:10:10;12.00;;;8.00;;
84840;SDS011;75088;53.114;18.040;2024-02-23T02:11:19;10.20;;;7.50;;
84840;SDS011;75088;53.114;18.040;2024-02-23T02:12:29;13.10;;;9.30;;
84840;SDS011;75088;53.114;18.040;2024-02-23T02:13:37;11.50;;;8.70;;
84840;SDS011;75088;53.114;18.040;2024-02-23T02:14:44;12.10;;;8.20;;
84840;SDS011;75088;53.114;18.040;2024-02-23T02:15:51;10.90;;;8.20;;
84840;SDS011;75088;53.114;18.040;2024-02-23T02:16:59;12.30;;;8.20;;
84840;SDS011;75088;53.114;18.040;2024-02-23T02:18:06;11.50;;;8.20;;
84840;SDS011;75088;53.114;18.040;2024-02-23T02:19:13;12.20;;;9.10;;
84840;SDS011;75088;53.114;18.040;2024-02-23T02:20:23;10.70;;;7.90;;
84840;SDS011;75088;53.114;18.040;2024-02-23T02:21:31;11.70;;;7.20;;
84840;SDS011;75088;53.114;18.040;2024-02-23T02:22:38;10.50;;;7.70;;
84840;SDS011;75088;53.114;18.040;2024-02-23T02:23:46;12.50;;;7.90;;
84840;SDS011;75088;53.114;18.040;2024-02-23T02:24:53;12.00;;;7.80;;
84840;SDS011;75088;53.114;18.040;2024-02-23T02:26:00;11.60;;;8.90;;
84840;SDS011;75088;53.114;18.040;2024-02-23T02:27:07;11.50;;;7.90;;
84840;SDS011;75088;53.114;18.040;2024-02-23T02:28:14;11.70;;;8.80;;
84840;SDS011;75088;53.114;18.040;2024-02-23T02:29:21;12.30;;;8.20;;
84840;SDS011;75088;53.114;18.040;2024-02-23T02:30:28;9.40;;;7.50;;
84840;SDS011;75088;53.114;18.040;2024-02-23T02:31:36;10.60;;;7.00;;
84840;SDS011;75088;53.114;18.040;2024-02-23T02:32:43;10.70;;;7.20;;
84840;SDS011;75088;53.114;18.040;2024-02-23T02:33:50;12.30;;;8.30;;
84840;SDS011;75088;53.114;18.040;2024-02-23T02:34:57;12.90;;;8.00;;
84840;SDS011;75088;53.114;18.040;2024-02-23T02:36:05;11.20;;;7.90;;
84840;SDS011;75088;53.114;18.040;2024-02-23T02:37:12;10.40;;;7.30;;
84840;SDS011;75088;53.114;18.040;2024-02-23T02:38:19;10.50;;;7.60;;
84840;SDS011;75088;53.114;18.040;2024-02-23T02:39:27;9.70;;;7.20;;
84840;SDS011;75088;53.114;18.040;2024-02-23T02:40:34;9.90;;;8.40;;
84840;SDS011;75088;53.114;18.040;2024-02-23T02:41:41;9.70;;;7.30;;
84840;SDS011;75088;53.114;18.040;2024-02-23T02:42:48;9.30;;;7.50;;
84840;SDS011;75088;53.114;18.040;2024-02-23T02:43:56;10.50;;;7.20;;
84840;SDS011;75088;53.114;18.040;2024-02-23T02:45:03;9.70;;;7.70;;
84840;SDS011;75088;53.114;18.040;2024-02-23T02:46:11;9.70;;;7.40;;
84840;SDS011;75088;53.114;18.040;2024-02-23T02:47:18;10.20;;;7.20;;
84840;SDS011;75088;53.114;18.040;2024-02-23T02:48:26;9.60;;;6.80;;
84840;SDS011;75088;53.114;18.040;2024-02-23T02:49:32;10.40;;;7.00;;
84840;SDS011;75088;53.114;18.040;2024-02-23T02:50:39;8.80;;;6.70;;
84840;SDS011;75088;53.114;18.040;2024-02-23T02:51:46;8.40;;;6.80;;
84840;SDS011;75088;53.114;18.040;2024-02-23T02:52:54;10.60;;;7.20;;
84840;SDS011;75088;53.114;18.040;2024-02-23T02:54:01;9.50;;;7.40;;
84840;SDS011;75088;53.114;18.040;2024-02-23T02:55:09;8.30;;;7.10;;
84840;SDS011;75088;53.114;18.040;2024-02-23T02:56:16;10.50;;;6.70;;
84840;SDS011;75088;53.114;18.040;2024-02-23T02:57:23;8.70;;;6.20;;
84840;SDS011;75088;53.114;18.040;2024-02-23T02:58:30;9.50;;;6.70;;
84840;SDS011;75088;53.114;18.040;2024-02-23T02:59:37;8.50;;;6.60;;
84840;SDS011;75088;53.114;18.040;2024-02-23T03:00:44;9.20;;;6.90;;
84840;SDS011;75088;53.114;18.040;2024-02-23T03:01:52;9.70;;;6.80;;
84840;SDS011;75088;53.114;18.040;2024-02-23T03:03:01;8.30;;;6.80;;
84840;SDS011;75088;53.114;18.040;2024-02-23T03:04:08;9.20;;;6.80;;
84840;SDS011;75088;53.114;18.040;2024-02-23T03:05:15;9.10;;;6.20;;
84840;SDS011;75088;53.114;18.040;2024-02-23T03:06:22;7.60;;;6.10;;
84840;SDS011;75088;53.114;18.040;2024-02-23T03:07:29;9.00;;;6.00;;
84840;SDS011;75088;53.114;18.040;2024-02-23T03:08:37;8.80;;;6.20;;
84840;SDS011;75088;53.114;18.040;2024-02-23T03:09:46;8.30;;;6.30;;
84840;SDS011;75088;53.114;18.040;2024-02-23T03:10:54;9.40;;;6.70;;
84840;SDS011;75088;53.114;18.040;2024-02-23T03:12:02;9.30;;;6.50;;
84840;SDS011;75088;53.114;18.040;2024-02-23T03:13:10;9.70;;;6.50;;
84840;SDS011;75088;53.114;18.040;2024-02-23T03:14:17;8.30;;;6.30;;
84840;SDS011;75088;53.114;18.040;2024-02-23T03:15:25;8.00;;;5.90;;
84840;SDS011;75088;53.114;18.040;2024-02-23T03:16:32;8.00;;;5.60;;
84840;SDS011;75088;53.114;18.040;2024-02-23T03:17:41;7.40;;;5.60;;
84840;SDS011;75088;53.114;18.040;2024-02-23T03:18:48;7.80;;;5.70;;
84840;SDS011;75088;53.114;18.040;2024-02-23T03:19:55;7.80;;;5.80;;
84840;SDS011;75088;53.114;18.040;2024-02-23T03:21:02;7.30;;;5.80;;
84840;SDS011;75088;53.114;18.040;2024-02-23T03:22:11;7.60;;;5.30;;
84840;SDS011;75088;53.114;18.040;2024-02-23T03:23:18;7.30;;;5.50;;
84840;SDS011;75088;53.114;18.040;2024-02-23T03:24:25;7.80;;;5.40;;
84840;SDS011;75088;53.114;18.040;2024-02-23T03:25:32;7.00;;;5.00;;
84840;SDS011;75088;53.114;18.040;2024-02-23T03:26:39;8.70;;;5.60;;
84840;SDS011;75088;53.114;18.040;2024-02-23T03:27:46;8.60;;;5.50;;
84840;SDS011;75088;53.114;18.040;2024-02-23T03:28:54;7.40;;;5.50;;
84840;SDS011;75088;53.114;18.040;2024-02-23T03:30:01;7.50;;;5.90;;
84840;SDS011;75088;53.114;18.040;2024-02-23T03:31:09;8.00;;;5.20;;
84840;SDS011;75088;53.114;18.040;2024-02-23T03:32:16;6.70;;;5.20;;
84840;SDS011;75088;53.114;18.040;2024-02-23T03:33:23;7.10;;;5.10;;
84840;SDS011;75088;53.114;18.040;2024-02-23T03:34:31;6.40;;;4.80;;
84840;SDS011;75088;53.114;18.040;2024-02-23T03:35:38;7.30;;;5.50;;
84840;SDS011;75088;53.114;18.040;2024-02-23T03:36:45;6.50;;;4.40;;
84840;SDS011;75088;53.114;18.040;2024-02-23T03:37:52;7.70;;;5.10;;
84840;SDS011;75088;53.114;18.040;2024-02-23T03:38:59;7.40;;;5.10;;
84840;SDS011;75088;53.114;18.040;2024-02-23T03:40:08;7.20;;;4.80;;
84840;SDS011;75088;53.114;18.040;2024-02-23T03:41:16;6.70;;;4.90;;
84840;SDS011;75088;53.114;18.040;2024-02-23T03:42:23;8.50;;;5.20;;
84840;SDS011;75088;53.114;18.040;2024-02-23T03:43:30;6.30;;;4.60;;
84840;SDS011;75088;53.114;18.040;2024-02-23T03:44:38;7.50;;;6.20;;
84840;SDS011;75088;53.114;18.040;2024-02-23T03:45:45;6.70;;;4.90;;
84840;SDS011;75088;53.114;18.040;2024-02-23T03:46:53;6.80;;;4.60;;
84840;SDS011;75088;53.114;18.040;2024-02-23T03:48:00;6.20;;;4.80;;
84840;SDS011;75088;53.114;18.040;2024-02-23T03:49:08;6.50;;;5.00;;
84840;SDS011;75088;53.114;18.040;2024-02-23T03:50:16;6.10;;;4.60;;
84840;SDS011;75088;53.114;18.040;2024-02-23T03:51:23;6.00;;;4.60;;
84840;SDS011;75088;53.114;18.040;2024-02-23T03:52:30;5.80;;;4.60;;
84840;SDS011;75088;53.114;18.040;2024-02-23T03:53:37;6.30;;;4.60;;
84840;SDS011;75088;53.114;18.040;2024-02-23T03:54:44;6.60;;;4.40;;
84840;SDS011;75088;53.114;18.040;2024-02-23T03:55:51;6.60;;;4.50;;
84840;SDS011;75088;53.114;18.040;2024-02-23T03:56:58;6.80;;;4.60;;
84840;SDS011;75088;53.114;18.040;2024-02-23T03:58:05;6.80;;;4.60;;
84840;SDS011;75088;53.114;18.040;2024-02-23T03:59:12;5.70;;;4.30;;
84840;SDS011;75088;53.114;18.040;2024-02-23T04:00:19;6.80;;;4.90;;
84840;SDS011;75088;53.114;18.040;2024-02-23T04:01:27;7.00;;;5.00;;
84840;SDS011;75088;53.114;18.040;2024-02-23T04:02:34;6.80;;;4.70;;
84840;SDS011;75088;53.114;18.040;2024-02-23T04:03:41;6.70;;;5.20;;
84840;SDS011;75088;53.114;18.040;2024-02-23T04:04:48;7.00;;;4.90;;
84840;SDS011;75088;53.114;18.040;2024-02-23T04:05:56;7.10;;;4.80;;
84840;SDS011;75088;53.114;18.040;2024-02-23T04:07:03;6.10;;;4.40;;
84840;SDS011;75088;53.114;18.040;2024-02-23T04:08:10;7.00;;;4.70;;
84840;SDS011;75088;53.114;18.040;2024-02-23T04:09:17;6.30;;;4.40;;
84840;SDS011;75088;53.114;18.040;2024-02-23T04:10:25;7.10;;;5.40;;
84840;SDS011;75088;53.114;18.040;2024-02-23T04:11:32;7.30;;;5.10;;
84840;SDS011;75088;53.114;18.040;2024-02-23T04:12:39;6.70;;;4.70;;
84840;SDS011;75088;53.114;18.040;2024-02-23T04:13:46;6.90;;;4.70;;
84840;SDS011;75088;53.114;18.040;2024-02-23T04:14:52;7.00;;;5.40;;
84840;SDS011;75088;53.114;18.040;2024-02-23T04:16:01;6.50;;;4.70;;
84840;SDS011;75088;53.114;18.040;2024-02-23T04:17:08;6.00;;;4.50;;
84840;SDS011;75088;53.114;18.040;2024-02-23T04:18:16;6.40;;;4.30;;
84840;SDS011;75088;53.114;18.040;2024-02-23T04:19:23;6.30;;;5.10;;
84840;SDS011;75088;53.114;18.040;2024-02-23T04:20:30;6.20;;;4.90;;
84840;SDS011;75088;53.114;18.040;2024-02-23T04:21:37;6.20;;;4.20;;
84840;SDS011;75088;53.114;18.040;2024-02-23T04:22:44;6.80;;;4.80;;
84840;SDS011;75088;53.114;18.040;2024-02-23T04:23:51;6.10;;;4.60;;
84840;SDS011;75088;53.114;18.040;2024-02-23T04:24:58;6.50;;;4.80;;
84840;SDS011;75088;53.114;18.040;2024-02-23T04:26:06;6.10;;;4.20;;
84840;SDS011;75088;53.114;18.040;2024-02-23T04:27:13;6.80;;;4.70;;
84840;SDS011;75088;53.114;18.040;2024-02-23T04:28:20;4.90;;;3.90;;
84840;SDS011;75088;53.114;18.040;2024-02-23T04:29:29;5.60;;;3.50;;
84840;SDS011;75088;53.114;18.040;2024-02-23T04:30:37;5.30;;;3.70;;
84840;SDS011;75088;53.114;18.040;2024-02-23T04:31:44;5.30;;;4.00;;
84840;SDS011;75088;53.114;18.040;2024-02-23T04:32:52;4.80;;;3.50;;
84840;SDS011;75088;53.114;18.040;2024-02-23T04:33:58;6.40;;;4.10;;
84840;SDS011;75088;53.114;18.040;2024-02-23T04:35:06;4.80;;;3.50;;
84840;SDS011;75088;53.114;18.040;2024-02-23T04:36:14;5.50;;;3.80;;
84840;SDS011;75088;53.114;18.040;2024-02-23T04:37:24;5.20;;;3.60;;
84840;SDS011;75088;53.114;18.040;2024-02-23T04:38:31;4.90;;;3.50;;
84840;SDS011;75088;53.114;18.040;2024-02-23T04:39:39;5.80;;;4.00;;
84840;SDS011;75088;53.114;18.040;2024-02-23T04:40:48;5.10;;;3.40;;
84840;SDS011;75088;53.114;18.040;2024-02-23T04:41:55;4.50;;;3.30;;
84840;SDS011;75088;53.114;18.040;2024-02-23T04:43:04;5.10;;;3.40;;
84840;SDS011;75088;53.114;18.040;2024-02-23T04:44:11;4.90;;;3.40;;
84840;SDS011;75088;53.114;18.040;2024-02-23T04:45:18;4.70;;;3.10;;
84840;SDS011;75088;53.114;18.040;2024-02-23T04:46:25;4.70;;;3.40;;
84840;SDS011;75088;53.114;18.040;2024-02-23T04:47:32;4.20;;;3.30;;
84840;SDS011;75088;53.114;18.040;2024-02-23T04:48:39;3.90;;;2.80;;
84840;SDS011;75088;53.114;18.040;2024-02-23T04:49:47;5.40;;;3.10;;
84840;SDS011;75088;53.114;18.040;2024-02-23T04:50:54;4.40;;;3.20;;
84840;SDS011;75088;53.114;18.040;2024-02-23T04:52:01;4.10;;;2.90;;
84840;SDS011;75088;53.114;18.040;2024-02-23T04:53:08;4.80;;;2.70;;
84840;SDS011;75088;53.114;18.040;2024-02-23T04:54:15;4.40;;;3.10;;
84840;SDS011;75088;53.114;18.040;2024-02-23T04:55:22;4.30;;;2.90;;
84840;SDS011;75088;53.114;18.040;2024-02-23T04:56:29;4.30;;;3.10;;
84840;SDS011;75088;53.114;18.040;2024-02-23T04:57:37;3.60;;;2.40;;
84840;SDS011;75088;53.114;18.040;2024-02-23T04:58:44;4.00;;;2.70;;
84840;SDS011;75088;53.114;18.040;2024-02-23T04:59:51;4.60;;;2.80;;
84840;SDS011;75088;53.114;18.040;2024-02-23T05:00:58;3.80;;;2.70;;
84840;SDS011;75088;53.114;18.040;2024-02-23T05:02:07;4.30;;;2.50;;
84840;SDS011;75088;53.114;18.040;2024-02-23T05:03:14;3.50;;;2.20;;
84840;SDS011;75088;53.114;18.040;2024-02-23T05:04:21;3.50;;;2.40;;
84840;SDS011;75088;53.114;18.040;2024-02-23T05:05:28;3.80;;;2.30;;
84840;SDS011;75088;53.114;18.040;2024-02-23T05:06:35;4.00;;;2.40;;
84840;SDS011;75088;53.114;18.040;2024-02-23T05:07:43;4.70;;;2.20;;
84840;SDS011;75088;53.114;18.040;2024-02-23T05:08:50;3.10;;;2.30;;
84840;SDS011;75088;53.114;18.040;2024-02-23T05:09:57;3.60;;;2.20;;
84840;SDS011;75088;53.114;18.040;2024-02-23T05:11:04;3.30;;;2.00;;
84840;SDS011;75088;53.114;18.040;2024-02-23T05:12:11;2.90;;;2.10;;
84840;SDS011;75088;53.114;18.040;2024-02-23T05:13:18;3.80;;;2.10;;
84840;SDS011;75088;53.114;18.040;2024-02-23T05:14:25;3.10;;;2.00;;
84840;SDS011;75088;53.114;18.040;2024-02-23T05:15:32;3.30;;;2.10;;
84840;SDS011;75088;53.114;18.040;2024-02-23T05:16:40;3.10;;;1.60;;
84840;SDS011;75088;53.114;18.040;2024-02-23T05:17:47;3.00;;;1.80;;
84840;SDS011;75088;53.114;18.040;2024-02-23T05:18:54;3.60;;;2.10;;
84840;SDS011;75088;53.114;18.040;2024-02-23T05:20:01;3.30;;;2.30;;
84840;SDS011;75088;53.114;18.040;2024-02-23T05:21:12;3.20;;;1.90;;
84840;SDS011;75088;53.114;18.040;2024-02-23T05:22:19;3.00;;;1.80;;
84840;SDS011;75088;53.114;18.040;2024-02-23T05:23:26;2.40;;;1.90;;
84840;SDS011;75088;53.114;18.040;2024-02-23T05:24:33;3.00;;;1.80;;
84840;SDS011;75088;53.114;18.040;2024-02-23T05:25:40;2.70;;;1.80;;
84840;SDS011;75088;53.114;18.040;2024-02-23T05:26:48;2.70;;;1.70;;
84840;SDS011;75088;53.114;18.040;2024-02-23T05:27:56;2.20;;;1.50;;
84840;SDS011;75088;53.114;18.040;2024-02-23T05:29:03;3.30;;;1.90;;
84840;SDS011;75088;53.114;18.040;2024-02-23T05:30:12;3.20;;;1.70;;
84840;SDS011;75088;53.114;18.040;2024-02-23T05:31:19;3.60;;;2.00;;
84840;SDS011;75088;53.114;18.040;2024-02-23T05:32:47;2.80;;;1.50;;
84840;SDS011;75088;53.114;18.040;2024-02-23T05:33:54;2.40;;;1.60;;
84840;SDS011;75088;53.114;18.040;2024-02-23T05:35:01;2.80;;;2.00;;
84840;SDS011;75088;53.114;18.040;2024-02-23T05:36:09;2.50;;;1.80;;
84840;SDS011;75088;53.114;18.040;2024-02-23T05:37:16;2.70;;;1.80;;
84840;SDS011;75088;53.114;18.040;2024-02-23T05:38:23;2.90;;;1.70;;
84840;SDS011;75088;53.114;18.040;2024-02-23T05:39:30;3.70;;;1.60;;
84840;SDS011;75088;53.114;18.040;2024-02-23T05:40:37;2.50;;;1.60;;
84840;SDS011;75088;53.114;18.040;2024-02-23T05:41:44;2.80;;;1.80;;
84840;SDS011;75088;53.114;18.040;2024-02-23T05:42:51;3.20;;;1.80;;
84840;SDS011;75088;53.114;18.040;2024-02-23T05:43:59;2.20;;;1.50;;
84840;SDS011;75088;53.114;18.040;2024-02-23T05:45:08;2.90;;;1.70;;
84840;SDS011;75088;53.114;18.040;2024-02-23T05:46:16;2.20;;;1.50;;
84840;SDS011;75088;53.114;18.040;2024-02-23T05:47:24;2.00;;;1.60;;
84840;SDS011;75088;53.114;18.040;2024-02-23T05:48:31;3.10;;;1.60;;
84840;SDS011;75088;53.114;18.040;2024-02-23T05:49:38;3.70;;;2.00;;
84840;SDS011;75088;53.114;18.040;2024-02-23T05:50:45;2.40;;;1.50;;
84840;SDS011;75088;53.114;18.040;2024-02-23T05:51:52;2.40;;;1.40;;
84840;SDS011;75088;53.114;18.040;2024-02-23T05:52:59;2.50;;;1.60;;
84840;SDS011;75088;53.114;18.040;2024-02-23T05:54:09;2.10;;;1.60;;
84840;SDS011;75088;53.114;18.040;2024-02-23T05:55:17;2.90;;;1.90;;
84840;SDS011;75088;53.114;18.040;2024-02-23T05:56:24;3.00;;;1.60;;
84840;SDS011;75088;53.114;18.040;2024-02-23T05:57:31;3.10;;;1.70;;
84840;SDS011;75088;53.114;18.040;2024-02-23T05:58:38;2.60;;;1.60;;
84840;SDS011;75088;53.114;18.040;2024-02-23T05:59:45;3.40;;;1.70;;
84840;SDS011;75088;53.114;18.040;2024-02-23T06:00:52;2.90;;;1.60;;
84840;SDS011;75088;53.114;18.040;2024-02-23T06:01:59;2.10;;;1.50;;
84840;SDS011;75088;53.114;18.040;2024-02-23T06:03:08;2.40;;;1.50;;
84840;SDS011;75088;53.114;18.040;2024-02-23T06:04:17;2.90;;;1.60;;
84840;SDS011;75088;53.114;18.040;2024-02-23T06:05:24;2.90;;;1.60;;
84840;SDS011;75088;53.114;18.040;2024-02-23T06:06:31;2.10;;;1.40;;
84840;SDS011;75088;53.114;18.040;2024-02-23T06:07:38;4.00;;;1.70;;
84840;SDS011;75088;53.114;18.040;2024-02-23T06:08:46;3.10;;;1.40;;
84840;SDS011;75088;53.114;18.040;2024-02-23T06:09:53;2.40;;;2.00;;
84840;SDS011;75088;53.114;18.040;2024-02-23T06:11:01;3.20;;;1.40;;
84840;SDS011;75088;53.114;18.040;2024-02-23T06:12:09;3.80;;;1.80;;
84840;SDS011;75088;53.114;18.040;2024-02-23T06:13:16;2.80;;;1.50;;
84840;SDS011;75088;53.114;18.040;2024-02-23T06:14:23;2.20;;;1.40;;
84840;SDS011;75088;53.114;18.040;2024-02-23T06:15:30;2.40;;;1.50;;
84840;SDS011;75088;53.114;18.040;2024-02-23T06:16:37;2.60;;;1.30;;
84840;SDS011;75088;53.114;18.040;2024-02-23T06:17:45;2.70;;;1.70;;
84840;SDS011;75088;53.114;18.040;2024-02-23T06:18:52;2.30;;;1.50;;
84840;SDS011;75088;53.114;18.040;2024-02-23T06:19:59;3.00;;;1.30;;
84840;SDS011;75088;53.114;18.040;2024-02-23T06:21:11;3.20;;;1.50;;
84840;SDS011;75088;53.114;18.040;2024-02-23T06:22:19;2.00;;;1.30;;
84840;SDS011;75088;53.114;18.040;2024-02-23T06:23:26;2.20;;;1.50;;
84840;SDS011;75088;53.114;18.040;2024-02-23T06:24:33;3.10;;;1.60;;
84840;SDS011;75088;53.114;18.040;2024-02-23T06:25:40;3.00;;;2.00;;
84840;SDS011;75088;53.114;18.040;2024-02-23T06:26:47;3.10;;;1.40;;
84840;SDS011;75088;53.114;18.040;2024-02-23T06:27:56;2.40;;;1.60;;
84840;SDS011;75088;53.114;18.040;2024-02-23T06:29:03;3.70;;;2.20;;
84840;SDS011;75088;53.114;18.040;2024-02-23T06:30:13;2.70;;;1.80;;
84840;SDS011;75088;53.114;18.040;2024-02-23T06:31:20;2.50;;;1.90;;
84840;SDS011;75088;53.114;18.040;2024-02-23T06:32:27;3.20;;;1.80;;
84840;SDS011;75088;53.114;18.040;2024-02-23T06:33:34;2.50;;;1.80;;
84840;SDS011;75088;53.114;18.040;2024-02-23T06:34:41;2.60;;;1.80;;
84840;SDS011;75088;53.114;18.040;2024-02-23T06:35:48;3.30;;;2.50;;
84840;SDS011;75088;53.114;18.040;2024-02-23T06:36:56;6.70;;;5.40;;
84840;SDS011;75088;53.114;18.040;2024-02-23T06:38:03;18.20;;;13.20;;